sensor_id;sensor_type;location;lat;lon;timestamp;temperature;humidity
59572;DHT22;59406;45.602;11.904;2023-05-07T00:00:21;24.60;92.70
59572;DHT22;59406;45.602;11.904;2023-05-07T00:02:48;24.60;93.00
59572;DHT22;59406;45.602;11.904;2023-05-07T00:05:14;24.60;92.40
59572;DHT22;59406;45.602;11.904;2023-05-07T00:07:40;24.60;91.90
59572;DHT22;59406;45.602;11.904;2023-05-07T00:10:06;24.60;92.20
59572;DHT22;59406;45.602;11.904;2023-05-07T00:12:33;24.60;92.40
59572;DHT22;59406;45.602;11.904;2023-05-07T00:15:01;24.60;92.30
59572;DHT22;59406;45.602;11.904;2023-05-07T00:17:27;24.60;92.00
59572;DHT22;59406;45.602;11.904;2023-05-07T00:19:53;24.70;92.30
59572;DHT22;59406;45.602;11.904;2023-05-07T00:22:19;24.50;92.30
59572;DHT22;59406;45.602;11.904;2023-05-07T00:24:44;24.60;91.80
59572;DHT22;59406;45.602;11.904;2023-05-07T00:27:10;24.50;91.80
59572;DHT22;59406;45.602;11.904;2023-05-07T00:29:37;24.50;91.30
59572;DHT22;59406;45.602;11.904;2023-05-07T00:32:03;24.70;91.30
59572;DHT22;59406;45.602;11.904;2023-05-07T00:34:29;24.50;91.20
59572;DHT22;59406;45.602;11.904;2023-05-07T00:36:55;24.50;91.40
59572;DHT22;59406;45.602;11.904;2023-05-07T00:39:21;24.50;91.30
59572;DHT22;59406;45.602;11.904;2023-05-07T00:41:46;24.50;91.10
59572;DHT22;59406;45.602;11.904;2023-05-07T00:44:13;24.50;91.00
59572;DHT22;59406;45.602;11.904;2023-05-07T00:46:40;24.50;91.20
59572;DHT22;59406;45.602;11.904;2023-05-07T00:49:06;24.50;90.90
59572;DHT22;59406;45.602;11.904;2023-05-07T00:51:33;24.40;91.10
59572;DHT22;59406;45.602;11.904;2023-05-07T00:54:01;24.50;91.10
59572;DHT22;59406;45.602;11.904;2023-05-07T00:56:27;24.40;91.50
59572;DHT22;59406;45.602;11.904;2023-05-07T00:58:53;24.50;91.70
59572;DHT22;59406;45.602;11.904;2023-05-07T01:01:20;24.50;91.80
59572;DHT22;59406;45.602;11.904;2023-05-07T01:03:45;24.50;91.90
59572;DHT22;59406;45.602;11.904;2023-05-07T01:06:12;24.50;91.70
59572;DHT22;59406;45.602;11.904;2023-05-07T01:08:40;24.50;91.70
59572;DHT22;59406;45.602;11.904;2023-05-07T01:11:07;24.50;91.40
59572;DHT22;59406;45.602;11.904;2023-05-07T01:13:34;24.40;91.40
59572;DHT22;59406;45.602;11.904;2023-05-07T01:16:01;24.50;91.00
59572;DHT22;59406;45.602;11.904;2023-05-07T01:18:27;24.40;90.60
59572;DHT22;59406;45.602;11.904;2023-05-07T01:20:58;24.40;90.70
59572;DHT22;59406;45.602;11.904;2023-05-07T01:23:25;24.40;89.60
59572;DHT22;59406;45.602;11.904;2023-05-07T01:25:54;24.40;89.90
59572;DHT22;59406;45.602;11.904;2023-05-07T01:28:20;24.40;89.90
59572;DHT22;59406;45.602;11.904;2023-05-07T01:31:00;24.40;90.10
59572;DHT22;59406;45.602;11.904;2023-05-07T01:33:29;24.30;90.10
59572;DHT22;59406;45.602;11.904;2023-05-07T01:35:57;24.50;90.10
59572;DHT22;59406;45.602;11.904;2023-05-07T01:38:26;24.40;89.80
59572;DHT22;59406;45.602;11.904;2023-05-07T01:40:53;24.30;89.60
59572;DHT22;59406;45.602;11.904;2023-05-07T01:43:19;24.30;89.50
59572;DHT22;59406;45.602;11.904;2023-05-07T01:45:45;24.30;89.30
59572;DHT22;59406;45.602;11.904;2023-05-07T01:48:11;24.30;89.20
59572;DHT22;59406;45.602;11.904;2023-05-07T01:50:39;24.30;89.80
59572;DHT22;59406;45.602;11.904;2023-05-07T01:53:05;24.30;89.50
59572;DHT22;59406;45.602;11.904;2023-05-07T01:55:30;24.30;88.90
59572;DHT22;59406;45.602;11.904;2023-05-07T01:57:56;24.40;89.00
59572;DHT22;59406;45.602;11.904;2023-05-07T02:00:22;24.30;89.00
59572;DHT22;59406;45.602;11.904;2023-05-07T02:02:48;24.30;89.10
59572;DHT22;59406;45.602;11.904;2023-05-07T02:05:14;24.30;89.30
59572;DHT22;59406;45.602;11.904;2023-05-07T02:07:40;24.30;89.40
59572;DHT22;59406;45.602;11.904;2023-05-07T02:10:06;24.30;89.60
59572;DHT22;59406;45.602;11.904;2023-05-07T02:12:32;24.30;89.50
59572;DHT22;59406;45.602;11.904;2023-05-07T02:14:58;24.30;89.60
59572;DHT22;59406;45.602;11.904;2023-05-07T02:17:24;24.30;89.80
59572;DHT22;59406;45.602;11.904;2023-05-07T02:19:49;24.20;89.60
59572;DHT22;59406;45.602;11.904;2023-05-07T02:22:15;24.30;89.80
59572;DHT22;59406;45.602;11.904;2023-05-07T02:24:41;24.20;89.10
59572;DHT22;59406;45.602;11.904;2023-05-07T02:27:07;24.30;89.20
59572;DHT22;59406;45.602;11.904;2023-05-07T02:29:33;24.30;89.00
59572;DHT22;59406;45.602;11.904;2023-05-07T02:31:59;24.20;89.00
59572;DHT22;59406;45.602;11.904;2023-05-07T02:34:28;24.30;88.90
59572;DHT22;59406;45.602;11.904;2023-05-07T02:36:54;24.20;88.90
59572;DHT22;59406;45.602;11.904;2023-05-07T02:39:21;24.20;89.00
59572;DHT22;59406;45.602;11.904;2023-05-07T02:41:47;24.20;88.70
59572;DHT22;59406;45.602;11.904;2023-05-07T02:44:13;24.20;88.80
59572;DHT22;59406;45.602;11.904;2023-05-07T02:46:39;24.20;89.50
59572;DHT22;59406;45.602;11.904;2023-05-07T02:49:05;24.20;90.20
59572;DHT22;59406;45.602;11.904;2023-05-07T02:51:31;24.20;90.50
59572;DHT22;59406;45.602;11.904;2023-05-07T02:53:57;24.20;91.00
59572;DHT22;59406;45.602;11.904;2023-05-07T02:56:25;24.20;90.90
59572;DHT22;59406;45.602;11.904;2023-05-07T02:58:51;24.20;91.00
59572;DHT22;59406;45.602;11.904;2023-05-07T03:01:17;24.20;90.90
59572;DHT22;59406;45.602;11.904;2023-05-07T03:03:44;24.10;90.30
59572;DHT22;59406;45.602;11.904;2023-05-07T03:06:10;24.10;89.80
59572;DHT22;59406;45.602;11.904;2023-05-07T03:08:36;24.20;89.80
59572;DHT22;59406;45.602;11.904;2023-05-07T03:11:02;24.20;89.40
59572;DHT22;59406;45.602;11.904;2023-05-07T03:13:28;24.10;89.40
59572;DHT22;59406;45.602;11.904;2023-05-07T03:15:54;24.10;89.20
59572;DHT22;59406;45.602;11.904;2023-05-07T03:18:20;24.10;89.00
59572;DHT22;59406;45.602;11.904;2023-05-07T03:20:47;24.10;89.00
59572;DHT22;59406;45.602;11.904;2023-05-07T03:23:13;24.00;88.80
59572;DHT22;59406;45.602;11.904;2023-05-07T03:25:39;24.00;88.80
59572;DHT22;59406;45.602;11.904;2023-05-07T03:28:05;24.10;88.40
59572;DHT22;59406;45.602;11.904;2023-05-07T03:30:31;24.10;88.30
59572;DHT22;59406;45.602;11.904;2023-05-07T03:32:57;24.10;88.00
59572;DHT22;59406;45.602;11.904;2023-05-07T03:35:23;24.10;87.80
59572;DHT22;59406;45.602;11.904;2023-05-07T03:37:49;24.10;87.80
59572;DHT22;59406;45.602;11.904;2023-05-07T03:40:15;24.10;87.80
59572;DHT22;59406;45.602;11.904;2023-05-07T03:42:41;24.10;87.70
59572;DHT22;59406;45.602;11.904;2023-05-07T03:45:07;24.10;87.70
59572;DHT22;59406;45.602;11.904;2023-05-07T03:47:33;24.10;87.50
59572;DHT22;59406;45.602;11.904;2023-05-07T03:49:59;24.00;87.40
59572;DHT22;59406;45.602;11.904;2023-05-07T03:52:25;24.10;87.60
59572;DHT22;59406;45.602;11.904;2023-05-07T03:54:52;24.00;87.20
59572;DHT22;59406;45.602;11.904;2023-05-07T03:57:19;24.10;87.40
59572;DHT22;59406;45.602;11.904;2023-05-07T03:59:45;24.00;87.40
59572;DHT22;59406;45.602;11.904;2023-05-07T04:02:11;24.00;87.30
59572;DHT22;59406;45.602;11.904;2023-05-07T04:04:37;24.00;87.50
59572;DHT22;59406;45.602;11.904;2023-05-07T04:07:03;24.00;87.80
59572;DHT22;59406;45.602;11.904;2023-05-07T04:09:29;24.00;87.90
59572;DHT22;59406;45.602;11.904;2023-05-07T04:11:56;24.00;88.30
59572;DHT22;59406;45.602;11.904;2023-05-07T04:14:22;24.00;88.90
59572;DHT22;59406;45.602;11.904;2023-05-07T04:16:47;24.00;88.80
59572;DHT22;59406;45.602;11.904;2023-05-07T04:19:13;24.00;88.90
59572;DHT22;59406;45.602;11.904;2023-05-07T04:21:39;24.00;89.50
59572;DHT22;59406;45.602;11.904;2023-05-07T04:24:06;24.00;89.40
59572;DHT22;59406;45.602;11.904;2023-05-07T04:26:32;24.00;88.70
59572;DHT22;59406;45.602;11.904;2023-05-07T04:28:58;24.00;88.20
59572;DHT22;59406;45.602;11.904;2023-05-07T04:31:24;24.00;88.20
59572;DHT22;59406;45.602;11.904;2023-05-07T04:33:50;24.00;88.00
59572;DHT22;59406;45.602;11.904;2023-05-07T04:36:17;23.90;87.70
59572;DHT22;59406;45.602;11.904;2023-05-07T04:38:43;24.00;87.80
59572;DHT22;59406;45.602;11.904;2023-05-07T04:41:09;23.90;87.80
59572;DHT22;59406;45.602;11.904;2023-05-07T04:43:35;24.00;87.50
59572;DHT22;59406;45.602;11.904;2023-05-07T04:46:01;24.00;87.50
59572;DHT22;59406;45.602;11.904;2023-05-07T04:48:27;23.90;87.50
59572;DHT22;59406;45.602;11.904;2023-05-07T04:50:54;23.90;87.70
59572;DHT22;59406;45.602;11.904;2023-05-07T04:53:20;24.00;88.10
59572;DHT22;59406;45.602;11.904;2023-05-07T04:55:47;24.00;88.10
59572;DHT22;59406;45.602;11.904;2023-05-07T04:58:13;23.90;88.00
59572;DHT22;59406;45.602;11.904;2023-05-07T05:00:39;24.00;88.20
59572;DHT22;59406;45.602;11.904;2023-05-07T06:58:49;0.20;0.20
59572;DHT22;59406;45.602;11.904;2023-05-07T07:01:14;0.20;0.20
59572;DHT22;59406;45.602;11.904;2023-05-07T07:03:40;0.20;0.20
59572;DHT22;59406;45.602;11.904;2023-05-07T07:06:06;0.20;0.20
59572;DHT22;59406;45.602;11.904;2023-05-07T07:12:43;0.20;0.20
59572;DHT22;59406;45.602;11.904;2023-05-07T07:15:09;0.20;0.20
59572;DHT22;59406;45.602;11.904;2023-05-07T07:17:35;0.20;0.20
59572;DHT22;59406;45.602;11.904;2023-05-07T07:20:01;0.20;0.20
59572;DHT22;59406;45.602;11.904;2023-05-07T07:22:28;0.20;0.20
59572;DHT22;59406;45.602;11.904;2023-05-07T07:24:54;0.20;0.20
59572;DHT22;59406;45.602;11.904;2023-05-07T07:27:20;0.20;0.20
59572;DHT22;59406;45.602;11.904;2023-05-07T07:29:46;0.20;0.20
59572;DHT22;59406;45.602;11.904;2023-05-07T07:32:11;0.20;0.20
59572;DHT22;59406;45.602;11.904;2023-05-07T07:34:37;0.20;0.20
59572;DHT22;59406;45.602;11.904;2023-05-07T07:37:03;0.20;0.20
59572;DHT22;59406;45.602;11.904;2023-05-07T07:39:34;0.20;0.20
59572;DHT22;59406;45.602;11.904;2023-05-07T07:42:03;0.20;0.20
59572;DHT22;59406;45.602;11.904;2023-05-07T07:44:29;0.20;0.20
59572;DHT22;59406;45.602;11.904;2023-05-07T07:46:54;0.20;0.20
59572;DHT22;59406;45.602;11.904;2023-05-07T07:49:20;0.20;0.20
59572;DHT22;59406;45.602;11.904;2023-05-07T07:51:46;0.20;0.20
59572;DHT22;59406;45.602;11.904;2023-05-07T07:54:12;0.20;0.20
59572;DHT22;59406;45.602;11.904;2023-05-07T07:56:38;0.20;0.20
59572;DHT22;59406;45.602;11.904;2023-05-07T07:59:03;0.20;0.20
59572;DHT22;59406;45.602;11.904;2023-05-07T08:01:30;0.20;0.20
59572;DHT22;59406;45.602;11.904;2023-05-07T08:03:56;0.20;0.20
59572;DHT22;59406;45.602;11.904;2023-05-07T08:06:24;0.20;0.20
59572;DHT22;59406;45.602;11.904;2023-05-07T08:08:51;0.20;0.20
59572;DHT22;59406;45.602;11.904;2023-05-07T08:11:17;0.20;0.20
59572;DHT22;59406;45.602;11.904;2023-05-07T08:13:43;0.20;0.20
59572;DHT22;59406;45.602;11.904;2023-05-07T08:16:10;0.20;0.20
59572;DHT22;59406;45.602;11.904;2023-05-07T08:18:36;0.20;0.20
59572;DHT22;59406;45.602;11.904;2023-05-07T08:21:02;0.20;0.20
59572;DHT22;59406;45.602;11.904;2023-05-07T08:23:28;0.20;0.20
59572;DHT22;59406;45.602;11.904;2023-05-07T08:25:54;0.20;0.20
59572;DHT22;59406;45.602;11.904;2023-05-07T08:28:20;0.20;0.20
59572;DHT22;59406;45.602;11.904;2023-05-07T08:34:10;0.20;0.20
59572;DHT22;59406;45.602;11.904;2023-05-07T08:36:36;0.20;0.20
59572;DHT22;59406;45.602;11.904;2023-05-07T08:39:02;0.20;0.20
59572;DHT22;59406;45.602;11.904;2023-05-07T08:41:29;0.20;0.20
59572;DHT22;59406;45.602;11.904;2023-05-07T08:43:58;0.20;0.20
59572;DHT22;59406;45.602;11.904;2023-05-07T08:46:25;0.20;0.20
59572;DHT22;59406;45.602;11.904;2023-05-07T08:48:56;0.20;0.20
59572;DHT22;59406;45.602;11.904;2023-05-07T08:51:22;0.20;0.20
59572;DHT22;59406;45.602;11.904;2023-05-07T08:53:49;0.20;0.20
59572;DHT22;59406;45.602;11.904;2023-05-07T08:56:16;0.20;0.20
59572;DHT22;59406;45.602;11.904;2023-05-07T08:58:43;0.20;0.20
59572;DHT22;59406;45.602;11.904;2023-05-07T09:01:13;0.20;0.20
59572;DHT22;59406;45.602;11.904;2023-05-07T09:03:40;0.20;0.20
59572;DHT22;59406;45.602;11.904;2023-05-07T09:06:07;0.20;0.20
59572;DHT22;59406;45.602;11.904;2023-05-07T09:08:34;0.20;0.20
59572;DHT22;59406;45.602;11.904;2023-05-07T09:11:00;0.20;0.20
59572;DHT22;59406;45.602;11.904;2023-05-07T09:13:27;0.20;0.20
59572;DHT22;59406;45.602;11.904;2023-05-07T09:15:54;0.20;0.20
59572;DHT22;59406;45.602;11.904;2023-05-07T09:18:20;0.20;0.20
59572;DHT22;59406;45.602;11.904;2023-05-07T09:20:46;0.20;0.20
59572;DHT22;59406;45.602;11.904;2023-05-07T09:23:11;0.20;0.20
59572;DHT22;59406;45.602;11.904;2023-05-07T09:25:37;0.20;0.20
59572;DHT22;59406;45.602;11.904;2023-05-07T09:28:04;0.20;0.20
59572;DHT22;59406;45.602;11.904;2023-05-07T09:30:35;0.20;0.20
59572;DHT22;59406;45.602;11.904;2023-05-07T09:33:03;0.20;0.20
59572;DHT22;59406;45.602;11.904;2023-05-07T09:35:30;0.20;0.20
59572;DHT22;59406;45.602;11.904;2023-05-07T09:37:57;0.20;0.20
59572;DHT22;59406;45.602;11.904;2023-05-07T09:40:26;0.20;0.20
59572;DHT22;59406;45.602;11.904;2023-05-07T09:42:53;0.20;0.20
59572;DHT22;59406;45.602;11.904;2023-05-07T09:45:26;0.20;0.20
59572;DHT22;59406;45.602;11.904;2023-05-07T09:47:56;0.20;0.20
59572;DHT22;59406;45.602;11.904;2023-05-07T09:50:36;0.20;0.20
59572;DHT22;59406;45.602;11.904;2023-05-07T09:53:04;0.20;0.20
59572;DHT22;59406;45.602;11.904;2023-05-07T09:55:31;0.20;0.20
59572;DHT22;59406;45.602;11.904;2023-05-07T09:57:57;0.20;0.20
59572;DHT22;59406;45.602;11.904;2023-05-07T10:00:25;0.20;0.20
59572;DHT22;59406;45.602;11.904;2023-05-07T10:02:56;0.20;0.20
59572;DHT22;59406;45.602;11.904;2023-05-07T10:05:24;0.20;0.20
59572;DHT22;59406;45.602;11.904;2023-05-07T10:07:50;0.20;0.20
59572;DHT22;59406;45.602;11.904;2023-05-07T10:10:17;0.20;0.20
59572;DHT22;59406;45.602;11.904;2023-05-07T10:12:44;0.20;0.20
59572;DHT22;59406;45.602;11.904;2023-05-07T10:15:11;0.20;0.20
59572;DHT22;59406;45.602;11.904;2023-05-07T10:17:39;0.20;0.20
59572;DHT22;59406;45.602;11.904;2023-05-07T10:20:06;0.20;0.20
59572;DHT22;59406;45.602;11.904;2023-05-07T10:22:41;0.20;0.20
59572;DHT22;59406;45.602;11.904;2023-05-07T10:25:23;0.20;0.20
59572;DHT22;59406;45.602;11.904;2023-05-07T10:27:52;0.20;0.20
59572;DHT22;59406;45.602;11.904;2023-05-07T10:33:07;0.20;0.20
59572;DHT22;59406;45.602;11.904;2023-05-07T10:35:45;0.20;0.20
59572;DHT22;59406;45.602;11.904;2023-05-07T10:38:12;0.20;0.20
59572;DHT22;59406;45.602;11.904;2023-05-07T10:40:38;0.20;0.20
59572;DHT22;59406;45.602;11.904;2023-05-07T10:43:05;0.20;0.20
59572;DHT22;59406;45.602;11.904;2023-05-07T10:45:32;0.20;0.20
59572;DHT22;59406;45.602;11.904;2023-05-07T10:50:34;0.20;0.20
59572;DHT22;59406;45.602;11.904;2023-05-07T10:55:45;0.20;0.20
59572;DHT22;59406;45.602;11.904;2023-05-07T10:58:25;0.20;0.20
59572;DHT22;59406;45.602;11.904;2023-05-07T11:00:58;0.20;0.20
59572;DHT22;59406;45.602;11.904;2023-05-07T11:03:25;0.20;0.20
59572;DHT22;59406;45.602;11.904;2023-05-07T11:06:23;0.20;0.20
59572;DHT22;59406;45.602;11.904;2023-05-07T11:08:52;0.20;0.20
59572;DHT22;59406;45.602;11.904;2023-05-07T11:11:19;0.20;0.20
59572;DHT22;59406;45.602;11.904;2023-05-07T11:13:48;0.20;0.20
59572;DHT22;59406;45.602;11.904;2023-05-07T11:16:22;0.20;0.20
59572;DHT22;59406;45.602;11.904;2023-05-07T11:18:54;0.20;0.20
59572;DHT22;59406;45.602;11.904;2023-05-07T11:21:40;0.20;0.20
59572;DHT22;59406;45.602;11.904;2023-05-07T11:24:07;0.20;0.20
59572;DHT22;59406;45.602;11.904;2023-05-07T11:26:47;0.20;0.20
59572;DHT22;59406;45.602;11.904;2023-05-07T11:29:17;0.20;0.20
59572;DHT22;59406;45.602;11.904;2023-05-07T11:31:48;0.20;0.20
59572;DHT22;59406;45.602;11.904;2023-05-07T11:34:15;0.20;0.20
59572;DHT22;59406;45.602;11.904;2023-05-07T11:36:47;0.20;0.20
59572;DHT22;59406;45.602;11.904;2023-05-07T11:39:30;0.20;0.20
59572;DHT22;59406;45.602;11.904;2023-05-07T11:41:59;0.20;0.20
59572;DHT22;59406;45.602;11.904;2023-05-07T11:44:39;0.20;0.20
59572;DHT22;59406;45.602;11.904;2023-05-07T11:47:05;0.20;0.20
59572;DHT22;59406;45.602;11.904;2023-05-07T11:49:31;0.20;0.20
59572;DHT22;59406;45.602;11.904;2023-05-07T11:51:57;0.20;0.20
59572;DHT22;59406;45.602;11.904;2023-05-07T11:54:23;0.20;0.20
59572;DHT22;59406;45.602;11.904;2023-05-07T11:56:49;0.20;0.20
59572;DHT22;59406;45.602;11.904;2023-05-07T11:59:18;0.20;0.20
59572;DHT22;59406;45.602;11.904;2023-05-07T12:01:47;0.20;0.20
59572;DHT22;59406;45.602;11.904;2023-05-07T12:04:13;0.20;0.20
59572;DHT22;59406;45.602;11.904;2023-05-07T12:10:35;0.20;0.20
59572;DHT22;59406;45.602;11.904;2023-05-07T12:13:20;0.20;0.20
59572;DHT22;59406;45.602;11.904;2023-05-07T12:15:48;0.20;0.20
59572;DHT22;59406;45.602;11.904;2023-05-07T12:18:16;0.20;0.20
59572;DHT22;59406;45.602;11.904;2023-05-07T12:20:42;0.20;0.20
59572;DHT22;59406;45.602;11.904;2023-05-07T12:23:08;0.20;0.20
59572;DHT22;59406;45.602;11.904;2023-05-07T12:25:38;0.20;0.20
59572;DHT22;59406;45.602;11.904;2023-05-07T12:28:07;0.20;0.20
59572;DHT22;59406;45.602;11.904;2023-05-07T12:30:44;0.20;0.20
59572;DHT22;59406;45.602;11.904;2023-05-07T12:33:10;0.20;0.20
59572;DHT22;59406;45.602;11.904;2023-05-07T12:35:39;0.20;0.20
59572;DHT22;59406;45.602;11.904;2023-05-07T12:38:16;0.20;0.20
59572;DHT22;59406;45.602;11.904;2023-05-07T12:40:50;0.20;0.20
59572;DHT22;59406;45.602;11.904;2023-05-07T12:43:29;0.20;0.20
59572;DHT22;59406;45.602;11.904;2023-05-07T12:45:58;0.20;0.20
59572;DHT22;59406;45.602;11.904;2023-05-07T12:48:25;0.20;0.20
59572;DHT22;59406;45.602;11.904;2023-05-07T12:50:57;0.20;0.20
59572;DHT22;59406;45.602;11.904;2023-05-07T12:53:26;0.20;0.20
59572;DHT22;59406;45.602;11.904;2023-05-07T12:55:54;0.20;0.20
59572;DHT22;59406;45.602;11.904;2023-05-07T12:58:29;0.20;0.20
59572;DHT22;59406;45.602;11.904;2023-05-07T13:00:57;0.20;0.20
59572;DHT22;59406;45.602;11.904;2023-05-07T13:03:31;0.20;0.20
59572;DHT22;59406;45.602;11.904;2023-05-07T13:05:59;0.20;0.20
59572;DHT22;59406;45.602;11.904;2023-05-07T13:10:52;0.20;0.20
59572;DHT22;59406;45.602;11.904;2023-05-07T13:13:19;0.20;0.20
59572;DHT22;59406;45.602;11.904;2023-05-07T13:15:46;0.20;0.20
59572;DHT22;59406;45.602;11.904;2023-05-07T13:18:12;0.20;0.20
59572;DHT22;59406;45.602;11.904;2023-05-07T13:20:38;0.20;0.20
59572;DHT22;59406;45.602;11.904;2023-05-07T13:23:04;0.20;0.20
59572;DHT22;59406;45.602;11.904;2023-05-07T13:25:30;0.20;0.20
59572;DHT22;59406;45.602;11.904;2023-05-07T13:27:57;0.20;0.20
59572;DHT22;59406;45.602;11.904;2023-05-07T13:30:23;0.20;0.20
59572;DHT22;59406;45.602;11.904;2023-05-07T13:32:49;0.20;0.20
59572;DHT22;59406;45.602;11.904;2023-05-07T13:35:16;0.20;0.20
59572;DHT22;59406;45.602;11.904;2023-05-07T13:37:42;0.20;0.20
59572;DHT22;59406;45.602;11.904;2023-05-07T13:40:08;0.20;0.20
59572;DHT22;59406;45.602;11.904;2023-05-07T13:42:34;0.20;0.20
59572;DHT22;59406;45.602;11.904;2023-05-07T13:45:00;0.20;0.20
59572;DHT22;59406;45.602;11.904;2023-05-07T13:47:28;0.20;0.20
59572;DHT22;59406;45.602;11.904;2023-05-07T13:49:54;0.20;0.20
59572;DHT22;59406;45.602;11.904;2023-05-07T13:52:20;0.20;0.20
59572;DHT22;59406;45.602;11.904;2023-05-07T13:54:46;0.20;0.20
59572;DHT22;59406;45.602;11.904;2023-05-07T13:57:12;0.20;0.20
59572;DHT22;59406;45.602;11.904;2023-05-07T13:59:38;0.20;0.20
59572;DHT22;59406;45.602;11.904;2023-05-07T14:02:03;0.20;0.20
59572;DHT22;59406;45.602;11.904;2023-05-07T14:04:30;0.20;0.20
59572;DHT22;59406;45.602;11.904;2023-05-07T14:06:56;0.20;0.20
59572;DHT22;59406;45.602;11.904;2023-05-07T14:09:22;0.20;0.20
59572;DHT22;59406;45.602;11.904;2023-05-07T14:11:48;0.20;0.20
59572;DHT22;59406;45.602;11.904;2023-05-07T14:14:17;0.20;0.20
59572;DHT22;59406;45.602;11.904;2023-05-07T14:16:44;0.20;0.20
59572;DHT22;59406;45.602;11.904;2023-05-07T14:19:11;0.20;0.20
59572;DHT22;59406;45.602;11.904;2023-05-07T14:21:37;0.20;0.20
59572;DHT22;59406;45.602;11.904;2023-05-07T14:24:03;0.20;0.20
59572;DHT22;59406;45.602;11.904;2023-05-07T14:26:29;0.20;0.20
59572;DHT22;59406;45.602;11.904;2023-05-07T14:28:56;0.20;0.20
59572;DHT22;59406;45.602;11.904;2023-05-07T14:31:24;0.20;0.20
59572;DHT22;59406;45.602;11.904;2023-05-07T14:33:50;0.20;0.20
59572;DHT22;59406;45.602;11.904;2023-05-07T14:36:16;0.20;0.20
59572;DHT22;59406;45.602;11.904;2023-05-07T14:38:43;0.20;0.20
59572;DHT22;59406;45.602;11.904;2023-05-07T14:41:09;0.20;0.20
59572;DHT22;59406;45.602;11.904;2023-05-07T14:43:35;0.20;0.20
59572;DHT22;59406;45.602;11.904;2023-05-07T14:46:02;0.20;0.20
59572;DHT22;59406;45.602;11.904;2023-05-07T14:48:28;0.20;0.20
59572;DHT22;59406;45.602;11.904;2023-05-07T14:50:54;0.20;0.20
59572;DHT22;59406;45.602;11.904;2023-05-07T14:53:21;0.20;0.20
59572;DHT22;59406;45.602;11.904;2023-05-07T14:55:48;0.20;0.20
59572;DHT22;59406;45.602;11.904;2023-05-07T14:58:15;0.20;0.20
59572;DHT22;59406;45.602;11.904;2023-05-07T15:00:41;0.20;0.20
59572;DHT22;59406;45.602;11.904;2023-05-07T15:03:10;0.20;0.20
59572;DHT22;59406;45.602;11.904;2023-05-07T15:05:37;0.20;0.20
59572;DHT22;59406;45.602;11.904;2023-05-07T15:08:03;0.20;0.20
59572;DHT22;59406;45.602;11.904;2023-05-07T15:10:29;0.20;0.20
59572;DHT22;59406;45.602;11.904;2023-05-07T15:12:55;0.20;0.20
59572;DHT22;59406;45.602;11.904;2023-05-07T15:15:21;0.20;0.20
59572;DHT22;59406;45.602;11.904;2023-05-07T15:17:47;0.20;0.20
59572;DHT22;59406;45.602;11.904;2023-05-07T15:20:13;0.20;0.20
59572;DHT22;59406;45.602;11.904;2023-05-07T15:22:39;0.20;0.20
59572;DHT22;59406;45.602;11.904;2023-05-07T15:25:07;0.20;0.20
59572;DHT22;59406;45.602;11.904;2023-05-07T15:27:33;0.20;0.20
59572;DHT22;59406;45.602;11.904;2023-05-07T15:29:59;0.20;0.20
59572;DHT22;59406;45.602;11.904;2023-05-07T15:32:25;0.20;0.20
59572;DHT22;59406;45.602;11.904;2023-05-07T15:34:51;0.20;0.20
59572;DHT22;59406;45.602;11.904;2023-05-07T15:37:17;0.20;0.20
59572;DHT22;59406;45.602;11.904;2023-05-07T15:39:44;0.20;0.20
59572;DHT22;59406;45.602;11.904;2023-05-07T15:42:11;0.20;0.20
59572;DHT22;59406;45.602;11.904;2023-05-07T15:44:37;0.20;0.20
59572;DHT22;59406;45.602;11.904;2023-05-07T15:47:03;0.20;0.20
59572;DHT22;59406;45.602;11.904;2023-05-07T15:49:30;0.20;0.20
59572;DHT22;59406;45.602;11.904;2023-05-07T15:51:56;0.20;0.20
59572;DHT22;59406;45.602;11.904;2023-05-07T15:54:23;0.20;0.20
59572;DHT22;59406;45.602;11.904;2023-05-07T15:56:50;0.20;0.20
59572;DHT22;59406;45.602;11.904;2023-05-07T15:59:16;0.20;0.20
59572;DHT22;59406;45.602;11.904;2023-05-07T16:01:43;0.20;0.20
59572;DHT22;59406;45.602;11.904;2023-05-07T16:04:10;0.20;0.20
59572;DHT22;59406;45.602;11.904;2023-05-07T16:06:36;0.20;0.20
59572;DHT22;59406;45.602;11.904;2023-05-07T16:09:03;0.20;0.20
59572;DHT22;59406;45.602;11.904;2023-05-07T16:11:29;0.20;0.20
59572;DHT22;59406;45.602;11.904;2023-05-07T16:13:55;0.20;0.20
59572;DHT22;59406;45.602;11.904;2023-05-07T16:16:22;0.20;0.20
59572;DHT22;59406;45.602;11.904;2023-05-07T16:18:51;0.20;0.20
59572;DHT22;59406;45.602;11.904;2023-05-07T16:21:17;0.20;0.20
59572;DHT22;59406;45.602;11.904;2023-05-07T16:23:43;0.20;0.20
59572;DHT22;59406;45.602;11.904;2023-05-07T16:26:08;0.20;0.20
59572;DHT22;59406;45.602;11.904;2023-05-07T16:28:34;0.20;0.20
59572;DHT22;59406;45.602;11.904;2023-05-07T16:31:00;0.20;0.20
59572;DHT22;59406;45.602;11.904;2023-05-07T16:33:27;0.20;0.20
59572;DHT22;59406;45.602;11.904;2023-05-07T16:35:54;0.20;0.20
59572;DHT22;59406;45.602;11.904;2023-05-07T16:38:20;0.20;0.20
59572;DHT22;59406;45.602;11.904;2023-05-07T16:40:46;0.20;0.20
59572;DHT22;59406;45.602;11.904;2023-05-07T16:43:12;0.20;0.20
59572;DHT22;59406;45.602;11.904;2023-05-07T16:45:38;0.20;0.20
59572;DHT22;59406;45.602;11.904;2023-05-07T16:48:04;0.20;0.20
59572;DHT22;59406;45.602;11.904;2023-05-07T16:50:32;0.20;0.20
59572;DHT22;59406;45.602;11.904;2023-05-07T16:52:58;0.20;0.20
59572;DHT22;59406;45.602;11.904;2023-05-07T16:55:24;0.20;0.20
59572;DHT22;59406;45.602;11.904;2023-05-07T16:57:50;0.20;0.20
59572;DHT22;59406;45.602;11.904;2023-05-07T17:00:16;0.20;0.20
59572;DHT22;59406;45.602;11.904;2023-05-07T17:02:42;0.20;0.20
59572;DHT22;59406;45.602;11.904;2023-05-07T17:05:09;0.20;0.20
59572;DHT22;59406;45.602;11.904;2023-05-07T17:07:35;0.20;0.20
